Time;durP1;ratioP1;P1;durP2;ratioP2;P2;SDS_P1;SDS_P2;PMS_P1;PMS_P2;Temp;Humidity;BMP_temperature;BMP_pressure;BME280_temperature;BME280_humidity;BME280_pressure;Samples;Min_cycle;Max_cycle;Signal;HPM_P1;HPM_P2
2023/05/05 00:01:56;;;;;;;2.00;1.80;;;19.70;75.00;;;;;;4974263;28;20183;-66
2023/05/05 00:04:23;;;;;;;3.88;2.13;;;19.70;75.60;;;;;;4974297;28;20275;-65
2023/05/05 00:06:54;;;;;;;2.30;2.10;;;19.70;75.60;;;;;;4972793;28;20188;-64
2023/05/05 00:09:20;;;;;;;2.47;2.28;;;19.60;75.60;;;;;;4960060;28;20185;-65
2023/05/05 00:11:45;;;;;;;3.25;2.13;;;19.50;75.60;;;;;;4964751;28;20195;-66
2023/05/05 00:14:13;;;;;;;2.60;2.03;;;19.40;75.80;;;;;;4970098;28;20205;-66
2023/05/05 00:16:39;;;;;;;2.63;2.13;;;19.30;76.10;;;;;;4955014;29;20220;-65
2023/05/05 00:19:07;;;;;;;2.78;2.40;;;19.20;76.30;;;;;;4954801;28;20215;-66
2023/05/05 00:21:33;;;;;;;2.72;2.00;;;19.20;76.90;;;;;;4960425;28;20243;-65
2023/05/05 00:24:00;;;;;;;2.65;2.20;;;19.10;77.20;;;;;;4957132;29;20361;-65
2023/05/05 00:26:26;;;;;;;2.38;2.17;;;19.00;77.30;;;;;;4960546;28;20196;-67
2023/05/05 00:28:54;;;;;;;2.42;2.13;;;18.90;77.70;;;;;;4956881;29;20184;-66
2023/05/05 00:31:20;;;;;;;3.25;2.35;;;18.90;78.30;;;;;;4966202;28;20182;-66
2023/05/05 00:33:45;;;;;;;2.83;2.38;;;18.80;78.60;;;;;;4950911;29;20201;-65
2023/05/05 00:36:13;;;;;;;3.13;2.38;;;18.80;78.90;;;;;;4945356;28;20244;-66
2023/05/05 00:38:39;;;;;;;3.08;2.33;;;18.70;79.30;;;;;;4968333;28;20268;-65
2023/05/05 00:41:06;;;;;;;2.60;1.98;;;18.60;79.70;;;;;;4972311;28;20252;-66
2023/05/05 00:43:34;;;;;;;2.13;1.92;;;18.60;80.20;;;;;;4956046;29;20300;-66
2023/05/05 00:46:05;;;;;;;2.72;2.20;;;18.50;80.60;;;;;;4956787;29;20193;-65
2023/05/05 00:48:35;;;;;;;3.08;2.40;;;18.50;81.20;;;;;;4975035;28;20184;-65
2023/05/05 00:51:01;;;;;;;2.75;2.15;;;18.50;81.70;;;;;;4973065;28;20203;-65
2023/05/05 00:53:28;;;;;;;2.88;2.50;;;18.40;81.80;;;;;;4972328;28;20205;-65
2023/05/05 00:55:53;;;;;;;4.40;2.42;;;18.40;82.50;;;;;;4956853;29;20192;-62
2023/05/05 00:58:19;;;;;;;2.50;2.10;;;18.30;82.80;;;;;;4962358;28;20197;-67
2023/05/05 01:00:47;;;;;;;3.67;2.22;;;18.30;83.30;;;;;;4957414;29;20181;-65
2023/05/05 01:03:14;;;;;;;2.22;2.03;;;18.30;83.70;;;;;;4961122;28;20204;-64
2023/05/05 01:06:23;;;;;;;2.55;2.13;;;18.20;84.00;;;;;;4973514;28;20201;-66
2023/05/05 01:09:37;;;;;;;3.10;2.00;;;18.20;85.20;;;;;;4939351;29;20184;-65
2023/05/05 01:12:43;;;;;;;2.20;2.00;;;18.20;85.60;;;;;;4941048;29;20515;-64
2023/05/05 01:15:21;;;;;;;2.90;2.28;;;18.10;85.60;;;;;;4943604;29;20197;-65
2023/05/05 01:18:02;;;;;;;3.03;2.40;;;18.10;86.30;;;;;;4973449;28;20223;-65
2023/05/05 01:20:36;;;;;;;2.42;2.22;;;18.00;86.50;;;;;;4964476;28;20740;-65
2023/05/05 01:23:09;;;;;;;2.72;2.22;;;17.90;86.70;;;;;;4973357;28;20196;-65
2023/05/05 01:26:04;;;;;;;2.80;2.17;;;17.90;87.00;;;;;;4972702;28;20310;-65
2023/05/05 01:28:37;;;;;;;3.20;2.45;;;17.80;88.20;;;;;;4972518;28;20247;-65
2023/05/05 01:31:02;;;;;;;2.75;2.30;;;17.70;87.40;;;;;;4945482;28;20207;-65
2023/05/05 01:33:40;;;;;;;3.78;2.20;;;17.70;87.80;;;;;;4954451;28;20209;-65
2023/05/05 01:36:21;;;;;;;3.30;2.40;;;17.60;89.00;;;;;;4956065;29;20192;-65
2023/05/05 01:38:51;;;;;;;2.28;1.95;;;17.60;89.00;;;;;;4973294;28;20220;-65
2023/05/05 01:41:25;;;;;;;2.65;2.20;;;17.50;89.20;;;;;;4973676;28;20168;-65
2023/05/05 01:43:53;;;;;;;2.30;2.10;;;17.40;90.00;;;;;;4972039;28;20287;-65
2023/05/05 01:46:23;;;;;;;2.45;2.08;;;17.40;90.00;;;;;;4955548;29;21810;-65
2023/05/05 01:48:52;;;;;;;3.15;2.38;;;17.40;90.40;;;;;;4972072;28;20391;-65
2023/05/05 01:51:20;;;;;;;3.97;2.47;;;17.30;90.60;;;;;;4971506;28;20416;-66
2023/05/05 01:53:46;;;;;;;3.13;2.28;;;17.30;91.00;;;;;;4955579;29;20300;-65
2023/05/05 01:56:14;;;;;;;4.47;2.35;;;17.20;90.80;;;;;;4972804;28;20177;-65
2023/05/05 01:58:45;;;;;;;2.78;2.30;;;17.20;91.10;;;;;;4972720;28;20256;-65
2023/05/05 02:01:12;;;;;;;3.28;2.25;;;17.20;91.50;;;;;;4969115;28;20173;-65
2023/05/05 02:03:40;;;;;;;3.38;2.75;;;17.10;91.50;;;;;;4960415;28;20232;-65
2023/05/05 02:06:10;;;;;;;3.78;2.58;;;17.10;91.70;;;;;;4972398;28;20177;-65
2023/05/05 02:08:38;;;;;;;2.55;2.28;;;17.00;92.20;;;;;;4975284;28;20180;-65
2023/05/05 02:11:08;;;;;;;4.97;2.42;;;16.90;92.20;;;;;;4978756;28;20208;-65
2023/05/05 02:13:37;;;;;;;2.45;2.20;;;16.90;92.40;;;;;;4972447;28;20238;-65
2023/05/05 02:16:07;;;;;;;2.60;2.38;;;16.80;92.80;;;;;;4969598;28;20212;-65
2023/05/05 02:18:34;;;;;;;2.80;2.50;;;16.70;93.00;;;;;;4972088;28;20176;-64
2023/05/05 02:21:03;;;;;;;3.28;2.80;;;16.70;93.20;;;;;;4958701;28;20174;-65
2023/05/05 02:23:31;;;;;;;3.15;2.50;;;16.70;93.80;;;;;;4937162;29;20212;-64
2023/05/05 02:26:05;;;;;;;3.13;2.47;;;16.60;93.80;;;;;;4938503;29;20181;-65
2023/05/05 02:28:48;;;;;;;3.20;2.40;;;16.60;94.60;;;;;;4971786;28;20441;-64
2023/05/05 02:31:18;;;;;;;3.08;2.45;;;16.60;95.30;;;;;;4960213;28;20192;-65
2023/05/05 02:33:52;;;;;;;3.25;2.60;;;16.50;94.70;;;;;;4971904;28;20197;-65
2023/05/05 02:36:26;;;;;;;2.53;2.33;;;16.50;95.60;;;;;;4972388;28;20201;-65
2023/05/05 02:39:03;;;;;;;3.47;2.28;;;16.40;95.30;;;;;;4942937;29;20176;-65
2023/05/05 02:41:31;;;;;;;3.85;2.50;;;16.40;96.00;;;;;;4968178;28;20185;-65
2023/05/05 02:43:59;;;;;;;3.05;2.50;;;16.40;95.90;;;;;;4946837;29;20208;-65
2023/05/05 02:46:26;;;;;;;3.25;2.53;;;16.40;96.20;;;;;;4959197;29;20185;-64
2023/05/05 02:48:55;;;;;;;2.80;2.50;;;16.30;96.40;;;;;;4962202;28;20247;-65
2023/05/05 02:51:20;;;;;;;3.08;2.65;;;16.30;96.80;;;;;;4958966;29;20201;-65
2023/05/05 02:53:49;;;;;;;3.42;2.50;;;16.30;96.80;;;;;;4959507;29;20204;-65
2023/05/05 02:56:31;;;;;;;3.65;2.58;;;16.30;97.00;;;;;;4960208;28;20180;-64
2023/05/05 02:59:13;;;;;;;4.00;2.53;;;16.30;98.30;;;;;;4959232;29;20184;-64
2023/05/05 03:02:18;;;;;;;3.55;2.42;;;16.20;98.50;;;;;;4967130;28;20180;-64
2023/05/05 03:04:49;;;;;;;2.50;2.13;;;16.20;98.90;;;;;;4957483;28;20215;-64
2023/05/05 03:07:31;;;;;;;2.97;2.53;;;16.20;98.70;;;;;;4959689;28;20185;-64
2023/05/05 03:10:16;;;;;;;3.08;2.33;;;16.20;99.30;;;;;;4959325;29;20208;-65
2023/05/05 03:12:52;;;;;;;2.50;2.30;;;16.20;99.40;;;;;;4957944;28;20208;-65
2023/05/05 03:15:24;;;;;;;3.47;2.50;;;16.20;99.70;;;;;;4960867;28;20190;-65
2023/05/05 03:17:52;;;;;;;3.17;2.60;;;16.10;99.50;;;;;;4971998;28;20295;-67
2023/05/05 03:20:19;;;;;;;2.67;2.20;;;16.10;99.40;;;;;;4950537;28;20181;-65
2023/05/05 03:22:47;;;;;;;3.28;2.58;;;16.10;99.60;;;;;;4959459;29;20185;-66
2023/05/05 03:25:13;;;;;;;3.72;2.58;;;16.10;99.90;;;;;;4965018;28;20192;-65
2023/05/05 03:27:39;;;;;;;3.03;2.42;;;16.10;99.90;;;;;;4994384;28;20584;-66
2023/05/05 03:30:06;;;;;;;11.05;6.70;;;16.10;99.90;;;;;;4951891;29;20225;-65
2023/05/05 03:32:31;;;;;;;9.20;7.55;;;16.00;99.90;;;;;;4958803;28;20224;-65
2023/05/05 03:34:57;;;;;;;5.97;5.10;;;16.00;99.90;;;;;;4970865;28;20199;-65
2023/05/05 03:37:25;;;;;;;4.70;4.20;;;16.00;99.90;;;;;;4958317;29;20204;-65
2023/05/05 03:39:50;;;;;;;5.50;3.85;;;16.00;99.90;;;;;;4960500;28;20181;-65
2023/05/05 03:42:18;;;;;;;5.00;3.75;;;16.00;99.90;;;;;;4956381;29;20184;-65
2023/05/05 03:44:46;;;;;;;5.95;4.15;;;16.10;99.90;;;;;;4958232;29;20185;-65
2023/05/05 03:47:12;;;;;;;5.43;4.38;;;16.10;99.90;;;;;;4948379;29;20212;-65
2023/05/05 03:49:37;;;;;;;6.85;5.10;;;16.10;99.90;;;;;;4960141;28;20200;-65
2023/05/05 03:52:05;;;;;;;4.47;3.88;;;16.10;99.90;;;;;;4973650;28;20176;-65
2023/05/05 03:54:31;;;;;;;4.03;3.35;;;16.10;99.90;;;;;;4957162;28;20231;-65
2023/05/05 03:56:57;;;;;;;3.85;3.33;;;16.10;99.90;;;;;;4949356;29;20200;-65
2023/05/05 03:59:27;;;;;;;4.30;3.38;;;16.10;99.90;;;;;;4971124;28;20174;-66
2023/05/05 04:01:53;;;;;;;3.78;3.00;;;16.10;99.90;;;;;;4951000;29;20212;-65
2023/05/05 04:04:19;;;;;;;3.97;2.90;;;16.10;99.90;;;;;;4956556;28;20293;-65
2023/05/05 04:06:44;;;;;;;3.50;2.90;;;16.10;99.90;;;;;;4955074;29;20188;-65
2023/05/05 04:09:11;;;;;;;3.53;2.65;;;16.10;99.90;;;;;;4957547;29;20180;-65
2023/05/05 04:11:36;;;;;;;5.45;3.15;;;16.10;99.90;;;;;;4973532;28;20192;-65
2023/05/05 04:14:02;;;;;;;3.97;2.50;;;16.00;99.90;;;;;;4956752;29;20204;-65
2023/05/05 04:16:30;;;;;;;3.35;2.45;;;16.00;99.90;;;;;;4958813;28;20207;-66
2023/05/05 04:18:58;;;;;;;3.72;2.65;;;16.00;99.90;;;;;;4972579;28;20276;-65
2023/05/05 04:21:26;;;;;;;5.20;2.72;;;16.00;99.90;;;;;;4968575;28;20184;-66
2023/05/05 04:23:51;;;;;;;3.83;3.17;;;15.90;99.90;;;;;;4957538;28;20183;-66
2023/05/05 04:26:19;;;;;;;5.55;4.35;;;16.00;99.90;;;;;;4956332;28;20173;-65
2023/05/05 04:28:45;;;;;;;4.93;3.33;;;16.00;99.90;;;;;;4979490;28;20185;-65
2023/05/05 04:31:11;;;;;;;4.28;3.40;;;16.00;99.90;;;;;;4973639;28;20212;-66
2023/05/05 04:33:38;;;;;;;3.88;3.03;;;16.00;99.90;;;;;;4967580;28;20287;-64
2023/05/05 04:36:04;;;;;;;4.53;2.70;;;16.10;99.90;;;;;;4949421;29;20179;-65
2023/05/05 04:38:32;;;;;;;3.63;2.95;;;16.20;99.90;;;;;;4957075;29;20201;-65
2023/05/05 04:40:58;;;;;;;3.92;3.10;;;16.20;99.90;;;;;;4963512;28;20188;-65
2023/05/05 04:43:24;;;;;;;5.78;3.70;;;16.30;99.90;;;;;;4944748;29;20180;-66
2023/05/05 04:45:54;;;;;;;5.07;3.00;;;16.40;99.90;;;;;;4970149;28;20288;-65
2023/05/05 04:48:20;;;;;;;7.63;6.07;;;16.40;99.90;;;;;;4956882;29;20184;-65
2023/05/05 04:50:46;;;;;;;9.02;6.20;;;16.50;99.90;;;;;;4951172;29;20181;-65
2023/05/05 04:53:11;;;;;;;5.60;4.82;;;16.60;99.90;;;;;;4957226;29;20215;-65
2023/05/05 04:55:38;;;;;;;5.07;4.15;;;16.60;99.90;;;;;;4960019;28;20267;-65
2023/05/05 04:58:04;;;;;;;4.70;3.47;;;16.70;99.90;;;;;;4956616;28;20220;-66
2023/05/05 05:00:29;;;;;;;4.40;3.38;;;16.70;99.90;;;;;;4956252;28;20236;-66
2023/05/05 05:02:57;;;;;;;4.10;3.70;;;16.80;99.90;;;;;;4949864;28;20181;-65
2023/05/05 05:05:25;;;;;;;3.58;3.25;;;16.90;99.90;;;;;;4951913;28;20200;-65
2023/05/05 05:07:51;;;;;;;3.55;3.13;;;16.90;99.90;;;;;;4952964;29;20183;-65
2023/05/05 05:10:17;;;;;;;4.60;2.97;;;17.00;99.90;;;;;;4953736;29;20185;-66
2023/05/05 05:12:42;;;;;;;3.78;3.22;;;17.00;99.90;;;;;;4968399;28;20208;-66
2023/05/05 05:15:08;;;;;;;4.28;3.13;;;17.10;99.90;;;;;;4959676;28;20185;-65
2023/05/05 05:17:34;;;;;;;4.05;2.60;;;17.10;99.90;;;;;;4953614;28;20223;-66
2023/05/05 05:20:03;;;;;;;3.72;3.08;;;17.20;99.90;;;;;;4956992;28;20176;-65
2023/05/05 05:22:32;;;;;;;4.18;3.00;;;17.20;99.90;;;;;;4972465;28;20263;-65
2023/05/05 05:24:57;;;;;;;3.03;2.80;;;17.30;99.90;;;;;;4963751;28;20185;-65
2023/05/05 05:27:25;;;;;;;5.55;3.45;;;17.40;99.90;;;;;;4968529;28;20257;-65
2023/05/05 05:29:51;;;;;;;4.93;3.00;;;17.40;99.90;;;;;;4951214;29;20236;-66
2023/05/05 05:32:19;;;;;;;4.60;2.85;;;17.50;99.90;;;;;;4972018;28;20195;-65
2023/05/05 05:34:48;;;;;;;4.30;2.80;;;17.60;99.90;;;;;;4961177;28;20227;-65
2023/05/05 05:37:14;;;;;;;8.65;3.65;;;17.70;99.90;;;;;;4969814;28;20180;-66
2023/05/05 05:39:40;;;;;;;7.47;3.25;;;17.70;99.90;;;;;;4968383;28;20169;-64
2023/05/05 05:42:08;;;;;;;3.72;3.00;;;17.80;99.90;;;;;;4950732;28;20176;-65
2023/05/05 05:44:34;;;;;;;5.00;2.90;;;17.90;99.90;;;;;;4956951;28;20208;-65
2023/05/05 05:47:02;;;;;;;4.25;3.08;;;17.90;99.90;;;;;;4956736;28;20195;-66
2023/05/05 05:49:27;;;;;;;3.97;3.15;;;18.00;99.90;;;;;;4959672;28;20186;-65
2023/05/05 05:51:53;;;;;;;4.93;3.25;;;18.00;99.90;;;;;;4956093;28;20204;-65
2023/05/05 05:54:21;;;;;;;3.53;3.13;;;18.10;99.90;;;;;;4955126;29;20217;-65
2023/05/05 05:56:46;;;;;;;4.18;3.30;;;18.10;99.90;;;;;;4962946;28;20181;-66
2023/05/05 05:59:17;;;;;;;3.72;3.35;;;18.10;99.90;;;;;;4955965;28;20196;-65
2023/05/05 06:01:42;;;;;;;3.55;3.08;;;18.20;99.90;;;;;;4951501;29;20170;-65
2023/05/05 06:04:10;;;;;;;3.78;2.97;;;18.20;99.90;;;;;;4955933;29;20173;-65
2023/05/05 06:06:36;;;;;;;3.35;3.00;;;18.20;99.90;;;;;;4952136;29;20510;-66
2023/05/05 06:09:06;;;;;;;3.75;3.38;;;18.20;99.90;;;;;;4971842;28;20177;-66
2023/05/05 06:11:36;;;;;;;3.90;3.22;;;18.20;99.90;;;;;;4965763;28;20216;-66
2023/05/05 06:14:02;;;;;;;5.43;3.10;;;18.20;99.90;;;;;;4950873;28;20207;-64
2023/05/05 06:16:30;;;;;;;4.35;3.10;;;18.20;99.90;;;;;;4954936;28;20197;-64
2023/05/05 06:18:56;;;;;;;3.38;3.08;;;18.20;99.90;;;;;;4962039;28;20203;-64
2023/05/05 06:21:21;;;;;;;4.18;3.28;;;18.20;99.90;;;;;;4961935;28;20275;-65
2023/05/05 06:23:47;;;;;;;3.88;3.10;;;18.20;99.90;;;;;;4981614;28;20436;-66
2023/05/05 06:26:13;;;;;;;3.75;3.08;;;18.30;99.90;;;;;;4956299;29;20204;-65
2023/05/05 06:28:41;;;;;;;5.78;3.20;;;18.30;99.90;;;;;;4969563;28;20184;-65
2023/05/05 06:31:07;;;;;;;5.05;3.17;;;18.30;99.90;;;;;;4966314;28;20204;-65
2023/05/05 06:33:35;;;;;;;5.00;3.30;;;18.30;99.90;;;;;;4959288;29;20197;-65
2023/05/05 06:36:03;;;;;;;3.53;2.95;;;18.40;99.90;;;;;;4959547;28;20375;-65
2023/05/05 06:38:31;;;;;;;4.00;2.97;;;18.50;99.90;;;;;;4954605;29;20246;-66
2023/05/05 06:40:57;;;;;;;5.78;3.40;;;18.50;99.90;;;;;;4941227;29;20180;-65
2023/05/05 06:43:23;;;;;;;4.45;3.10;;;18.60;99.90;;;;;;4957822;29;21618;-65
2023/05/05 06:45:48;;;;;;;4.75;2.80;;;18.60;99.90;;;;;;4959290;28;20291;-66
2023/05/05 06:48:20;;;;;;;3.40;2.90;;;18.70;99.90;;;;;;4952905;28;20188;-66
2023/05/05 06:50:45;;;;;;;5.28;3.08;;;18.80;99.90;;;;;;4967606;28;20181;-65
2023/05/05 06:53:13;;;;;;;4.75;3.00;;;18.90;99.90;;;;;;4972082;28;20300;-64
2023/05/05 06:55:45;;;;;;;4.88;3.00;;;18.90;99.90;;;;;;4970631;28;20176;-66
2023/05/05 06:58:11;;;;;;;3.83;2.88;;;19.00;99.90;;;;;;4969954;28;20177;-67
2023/05/05 07:00:41;;;;;;;3.67;2.90;;;19.10;99.90;;;;;;4959062;28;20215;-65
2023/05/05 07:03:09;;;;;;;4.35;3.10;;;19.20;99.90;;;;;;4979263;28;20173;-64
2023/05/05 07:05:35;;;;;;;3.60;2.97;;;19.30;99.90;;;;;;4952123;28;20241;-65
2023/05/05 07:08:03;;;;;;;3.72;2.92;;;19.40;99.90;;;;;;4947503;28;20165;-65
2023/05/05 07:10:30;;;;;;;3.25;2.83;;;19.40;99.90;;;;;;4974968;28;20247;-65
2023/05/05 07:12:56;;;;;;;4.43;3.13;;;19.60;99.90;;;;;;4953090;29;20177;-64
2023/05/05 07:15:23;;;;;;;3.85;2.78;;;19.60;99.90;;;;;;4951254;29;20180;-65
2023/05/05 07:17:49;;;;;;;3.60;2.90;;;19.70;99.90;;;;;;4974848;28;20184;-65
2023/05/05 07:20:15;;;;;;;5.85;3.20;;;19.80;99.90;;;;;;4959437;29;20203;-65
2023/05/05 07:22:43;;;;;;;4.95;3.28;;;19.90;99.90;;;;;;4954442;29;20173;-65
2023/05/05 07:25:10;;;;;;;3.90;3.25;;;20.00;99.90;;;;;;4941394;29;20234;-65
2023/05/05 07:27:36;;;;;;;3.65;3.20;;;20.00;99.90;;;;;;4945916;28;20224;-64
2023/05/05 07:30:03;;;;;;;4.65;3.75;;;20.00;99.90;;;;;;4974584;28;20177;-65
2023/05/05 07:32:31;;;;;;;5.60;3.75;;;20.10;99.90;;;;;;4958042;29;20247;-64
2023/05/05 07:35:01;;;;;;;4.55;3.47;;;20.10;99.90;;;;;;4974975;28;20506;-66
2023/05/05 07:37:29;;;;;;;3.88;3.47;;;20.10;99.90;;;;;;4960430;28;20195;-65
2023/05/05 07:39:57;;;;;;;3.83;3.35;;;20.10;99.90;;;;;;4955056;29;20185;-66
2023/05/05 07:42:23;;;;;;;4.80;4.18;;;20.20;99.90;;;;;;4954361;29;20177;-64
2023/05/05 07:44:51;;;;;;;5.28;4.10;;;20.20;99.90;;;;;;4954283;29;20186;-64
2023/05/05 07:47:19;;;;;;;4.47;3.90;;;20.30;99.90;;;;;;4940233;29;20201;-65
2023/05/05 07:49:45;;;;;;;4.20;3.80;;;20.30;99.90;;;;;;4973533;28;20185;-64
2023/05/05 07:52:11;;;;;;;5.30;4.20;;;20.40;99.90;;;;;;4968382;28;20265;-65
2023/05/05 07:54:36;;;;;;;4.75;4.10;;;20.50;99.90;;;;;;4974010;28;20381;-65
2023/05/05 07:57:02;;;;;;;5.47;4.30;;;20.50;99.90;;;;;;4960992;28;20189;-65
2023/05/05 07:59:28;;;;;;;7.40;4.28;;;20.60;99.90;;;;;;4962224;28;20181;-65
2023/05/05 08:01:56;;;;;;;6.18;4.65;;;20.60;99.90;;;;;;4958384;28;20285;-65
2023/05/05 08:04:21;;;;;;;4.78;3.90;;;20.70;99.90;;;;;;4960335;28;20180;-66
2023/05/05 08:06:47;;;;;;;4.47;3.92;;;20.70;99.90;;;;;;4968789;28;20181;-65
2023/05/05 08:09:12;;;;;;;5.00;3.65;;;20.70;99.90;;;;;;4953620;29;20208;-65
2023/05/05 08:11:38;;;;;;;4.70;3.88;;;20.80;99.90;;;;;;4946997;28;20217;-65
2023/05/05 08:14:04;;;;;;;5.00;4.10;;;20.80;99.90;;;;;;4959951;28;20193;-64
2023/05/05 08:16:29;;;;;;;5.30;3.85;;;20.80;99.90;;;;;;4955417;28;20197;-65
2023/05/05 08:18:55;;;;;;;4.45;4.03;;;20.80;99.90;;;;;;4962982;28;20244;-65
2023/05/05 08:21:21;;;;;;;4.20;3.80;;;20.90;99.90;;;;;;4963599;28;20238;-64
2023/05/05 08:23:46;;;;;;;4.65;4.00;;;20.90;99.90;;;;;;4952303;29;20214;-65
2023/05/05 08:26:14;;;;;;;5.82;4.10;;;21.00;99.90;;;;;;4942940;29;20172;-65
2023/05/05 08:28:40;;;;;;;5.90;4.13;;;21.10;99.90;;;;;;4957206;28;20208;-65
2023/05/05 08:31:06;;;;;;;4.88;3.80;;;21.20;99.90;;;;;;4953995;29;20168;-65
2023/05/05 08:33:32;;;;;;;5.22;3.47;;;21.20;99.90;;;;;;4962269;28;20205;-65
2023/05/05 08:35:58;;;;;;;4.60;3.75;;;21.30;99.90;;;;;;4958565;28;20200;-65
2023/05/05 08:38:23;;;;;;;4.13;3.33;;;21.50;99.90;;;;;;4947713;28;20181;-65
2023/05/05 08:40:52;;;;;;;4.70;3.28;;;21.50;99.90;;;;;;4956611;28;20187;-65
2023/05/05 08:43:21;;;;;;;4.28;3.47;;;21.60;99.90;;;;;;4972168;28;20208;-65
2023/05/05 08:45:50;;;;;;;4.30;3.08;;;21.70;99.90;;;;;;4955988;28;20176;-65
2023/05/05 08:48:20;;;;;;;5.75;3.33;;;21.80;99.90;;;;;;4942266;29;20185;-65
2023/05/05 08:50:56;;;;;;;4.55;3.65;;;21.80;99.90;;;;;;4953845;28;20220;-65
2023/05/05 08:53:48;;;;;;;6.47;3.90;;;21.90;99.90;;;;;;4952989;29;20218;-65
2023/05/05 08:56:15;;;;;;;6.60;3.10;;;22.00;99.90;;;;;;4956786;29;20228;-65
2023/05/05 08:58:43;;;;;;;3.15;2.63;;;22.10;99.90;;;;;;4953745;29;20185;-66
2023/05/05 09:01:09;;;;;;;4.93;2.92;;;22.10;99.90;;;;;;4946344;29;20178;-65
2023/05/05 09:03:36;;;;;;;4.05;2.90;;;22.20;99.90;;;;;;4951449;28;20226;-64
2023/05/05 09:06:03;;;;;;;3.45;3.15;;;22.30;99.90;;;;;;4972736;28;20223;-65
2023/05/05 09:08:30;;;;;;;3.50;3.03;;;22.30;99.90;;;;;;4959583;28;20287;-66
2023/05/05 09:10:59;;;;;;;5.05;3.25;;;22.30;99.90;;;;;;4950664;29;20213;-65
2023/05/05 09:13:24;;;;;;;2.92;2.63;;;22.30;99.90;;;;;;4973085;28;20200;-66
2023/05/05 09:15:50;;;;;;;3.88;3.08;;;22.30;99.90;;;;;;4955597;28;20247;-65
2023/05/05 09:18:18;;;;;;;2.92;2.63;;;22.30;99.90;;;;;;4956246;29;20181;-65
2023/05/05 09:20:43;;;;;;;4.28;2.67;;;22.30;99.90;;;;;;4972620;28;20240;-65
2023/05/05 09:23:19;;;;;;;6.53;3.60;;;22.40;99.90;;;;;;4948811;28;20205;-66
2023/05/05 09:25:47;;;;;;;5.13;3.15;;;22.40;99.90;;;;;;4950178;29;20172;-65
2023/05/05 09:28:14;;;;;;;4.10;2.85;;;22.40;99.90;;;;;;4956374;29;20177;-65
2023/05/05 09:30:42;;;;;;;4.03;3.28;;;22.50;99.90;;;;;;4956311;28;20215;-65
2023/05/05 09:33:11;;;;;;;4.38;2.97;;;22.50;99.90;;;;;;4956011;28;20173;-65
2023/05/05 09:35:56;;;;;;;4.00;3.20;;;22.50;99.90;;;;;;4959478;28;20251;-65
2023/05/05 09:38:26;;;;;;;6.22;3.78;;;22.60;99.90;;;;;;4956553;28;20260;-64
2023/05/05 09:40:52;;;;;;;4.13;3.42;;;22.60;99.90;;;;;;4947978;29;20193;-67
2023/05/05 09:43:20;;;;;;;5.53;3.45;;;22.60;99.90;;;;;;4957123;28;20355;-67
2023/05/05 09:45:47;;;;;;;4.15;3.60;;;22.70;99.90;;;;;;4971046;28;20193;-67
2023/05/05 09:48:25;;;;;;;4.60;3.53;;;22.70;99.90;;;;;;4969086;28;20185;-67
2023/05/05 09:50:51;;;;;;;8.05;3.72;;;22.70;99.90;;;;;;4967645;28;20284;-65
2023/05/05 09:53:20;;;;;;;7.30;3.75;;;22.80;99.90;;;;;;4970881;28;20362;-67
2023/05/05 09:55:56;;;;;;;5.93;3.53;;;22.80;99.90;;;;;;4971489;28;20177;-67
2023/05/05 09:58:31;;;;;;;3.95;3.50;;;22.90;99.90;;;;;;4946770;28;20205;-67
2023/05/05 10:00:58;;;;;;;4.20;3.50;;;22.90;99.90;;;;;;4948065;29;20172;-67
2023/05/05 10:03:26;;;;;;;4.95;3.60;;;23.00;99.90;;;;;;4971622;28;20197;-66
2023/05/05 10:05:57;;;;;;;5.43;3.78;;;23.10;99.90;;;;;;4947958;28;20275;-67
2023/05/05 10:08:29;;;;;;;5.53;4.00;;;23.10;99.90;;;;;;4955805;28;20212;-66
2023/05/05 10:10:59;;;;;;;5.20;3.40;;;23.20;99.90;;;;;;4952457;28;20200;-68
2023/05/05 10:13:25;;;;;;;4.63;3.40;;;23.30;99.90;;;;;;4959058;28;20201;-65
2023/05/05 10:15:55;;;;;;;3.85;3.22;;;23.40;99.90;;;;;;4947829;29;20180;-65
2023/05/05 10:18:26;;;;;;;3.13;2.67;;;23.70;99.90;;;;;;4951986;28;20276;-66
2023/05/05 10:21:02;;;;;;;2.60;2.30;;;24.10;99.90;;;;;;4949843;29;20176;-66
2023/05/05 10:23:48;;;;;;;3.45;2.03;;;24.30;99.90;;;;;;4955654;29;20191;-65
2023/05/05 10:26:18;;;;;;;2.38;2.00;;;24.50;99.90;;;;;;4952714;28;20241;-66
2023/05/05 10:28:54;;;;;;;2.92;1.98;;;24.50;99.90;;;;;;4968776;28;20199;-62
2023/05/05 10:31:42;;;;;;;1.98;1.73;;;24.50;99.90;;;;;;4967506;28;20240;-64
2023/05/05 10:34:13;;;;;;;1.67;1.45;;;24.40;99.90;;;;;;4953157;29;20208;-66
2023/05/05 10:36:40;;;;;;;3.58;2.60;;;24.40;99.90;;;;;;4956270;29;20181;-66
2023/05/05 10:39:08;;;;;;;4.03;3.22;;;24.40;99.90;;;;;;4955374;28;20279;-66
2023/05/05 10:41:36;;;;;;;8.05;4.03;;;24.40;99.90;;;;;;4954969;29;20388;-66
2023/05/05 10:44:03;;;;;;;4.88;3.60;;;24.40;99.90;;;;;;4971546;28;20201;-66
2023/05/05 10:46:34;;;;;;;5.13;3.33;;;24.40;99.90;;;;;;4948780;29;20185;-66
2023/05/05 10:49:12;;;;;;;5.32;4.13;;;24.40;99.90;;;;;;4977147;28;20278;-65
2023/05/05 10:51:56;;;;;;;4.47;3.72;;;24.50;99.90;;;;;;4968019;28;20177;-67
2023/05/05 10:54:46;;;;;;;4.15;3.55;;;24.50;99.90;;;;;;4954002;29;20200;-65
2023/05/05 10:57:15;;;;;;;5.53;3.60;;;24.60;99.90;;;;;;4938335;29;20177;-65
2023/05/05 10:59:42;;;;;;;6.55;3.40;;;24.60;99.90;;;;;;4963805;28;20205;-66
2023/05/05 11:02:30;;;;;;;4.10;3.70;;;24.70;99.90;;;;;;4941205;29;20185;-66
2023/05/05 11:05:05;;;;;;;3.75;3.28;;;24.90;99.90;;;;;;4949783;28;20267;-66
2023/05/05 11:07:35;;;;;;;3.72;3.28;;;25.00;99.90;;;;;;4969888;28;20239;-66
2023/05/05 11:10:08;;;;;;;3.83;3.35;;;25.10;99.90;;;;;;4958789;29;20185;-66
2023/05/05 11:13:05;;;;;;;3.65;2.85;;;25.20;99.90;;;;;;4957980;28;20227;-67
2023/05/05 11:15:36;;;;;;;3.15;2.80;;;25.20;99.90;;;;;;4939493;28;20196;-67
2023/05/05 11:18:06;;;;;;;3.45;2.70;;;25.20;99.90;;;;;;4958184;28;20263;-67
2023/05/05 11:20:44;;;;;;;5.53;3.03;;;25.30;99.90;;;;;;4971632;28;20315;-67
2023/05/05 11:23:09;;;;;;;2.80;2.50;;;25.30;99.90;;;;;;4971987;28;20203;-65
2023/05/05 11:25:35;;;;;;;4.43;2.67;;;25.30;99.90;;;;;;4957845;28;20174;-65
2023/05/05 11:28:15;;;;;;;2.80;2.40;;;25.30;99.90;;;;;;4964957;28;20213;-68
2023/05/05 11:30:57;;;;;;;3.03;2.47;;;25.30;99.90;;;;;;4952742;29;20204;-66
2023/05/05 11:33:34;;;;;;;6.22;1.88;;;25.20;99.90;;;;;;4972469;28;20217;-65
2023/05/05 11:36:03;;;;;;;7.80;1.38;;;24.90;99.20;;;;;;4946785;28;20185;-67
2023/05/05 11:39:04;;;;;;;7.50;0.98;;;24.50;97.30;;;;;;4949296;29;20210;-67
2023/05/05 11:41:30;;;;;;;2.45;0.88;;;23.90;97.00;;;;;;4949706;29;20180;-66
2023/05/05 11:44:19;;;;;;;2.05;0.90;;;23.30;96.80;;;;;;4969434;28;20207;-66
2023/05/05 11:46:51;;;;;;;2.10;0.77;;;22.60;96.80;;;;;;4957309;28;20212;-64
2023/05/05 11:49:33;;;;;;;2.20;0.73;;;22.00;97.00;;;;;;4961320;28;20237;-66
2023/05/05 11:51:59;;;;;;;1.38;0.60;;;21.40;97.70;;;;;;4964526;28;20192;-67
2023/05/05 11:54:28;;;;;;;2.03;0.88;;;21.00;98.30;;;;;;4957784;28;20284;-67
2023/05/05 11:56:58;;;;;;;0.80;0.60;;;20.70;98.90;;;;;;4957037;28;20189;-66
2023/05/05 11:59:24;;;;;;;1.45;0.75;;;20.40;99.50;;;;;;4965654;28;20181;-66
2023/05/05 12:01:50;;;;;;;1.70;0.85;;;20.30;99.90;;;;;;4973861;28;20208;-67
2023/05/05 12:04:16;;;;;;;2.35;0.73;;;20.20;99.90;;;;;;4955359;29;20188;-68
2023/05/05 12:06:45;;;;;;;1.60;0.70;;;20.10;99.90;;;;;;4947306;29;20272;-67
2023/05/05 12:09:22;;;;;;;0.98;0.70;;;20.00;99.90;;;;;;4952454;29;20181;-67
2023/05/05 12:11:55;;;;;;;1.88;0.90;;;20.00;99.90;;;;;;4968466;28;20187;-67
2023/05/05 12:14:21;;;;;;;1.58;0.98;;;20.10;99.90;;;;;;4963789;28;20217;-65
2023/05/05 12:16:54;;;;;;;1.25;0.88;;;20.20;99.90;;;;;;4954303;28;20292;-65
2023/05/05 12:19:22;;;;;;;3.17;1.00;;;20.20;99.90;;;;;;4952562;29;20180;-66
2023/05/05 12:21:53;;;;;;;1.55;0.80;;;20.30;99.90;;;;;;4952210;28;20204;-66
2023/05/05 12:24:18;;;;;;;1.05;0.90;;;20.40;99.90;;;;;;4973490;28;20169;-66
2023/05/05 12:26:44;;;;;;;1.95;1.00;;;20.50;99.90;;;;;;4960537;28;20188;-66
2023/05/05 12:29:09;;;;;;;1.00;0.68;;;20.70;99.90;;;;;;4962042;28;20178;-66
2023/05/05 12:31:41;;;;;;;1.48;0.80;;;20.80;99.90;;;;;;4957291;29;20184;-69
2023/05/05 12:34:12;;;;;;;1.25;0.77;;;20.90;99.90;;;;;;4958970;28;20292;-65
2023/05/05 12:36:41;;;;;;;2.55;1.02;;;21.10;99.90;;;;;;4968126;28;20173;-65
2023/05/05 12:39:07;;;;;;;0.90;0.70;;;21.20;99.90;;;;;;4967101;28;20358;-64
2023/05/05 12:41:33;;;;;;;1.80;0.80;;;21.40;99.90;;;;;;4956502;28;20205;-66
2023/05/05 12:44:00;;;;;;;1.20;0.85;;;21.50;99.90;;;;;;4952866;28;20529;-66
2023/05/05 12:46:28;;;;;;;1.48;0.90;;;21.70;99.90;;;;;;4956284;29;20180;-67
2023/05/05 12:49:05;;;;;;;3.25;1.05;;;21.80;99.90;;;;;;4954920;28;20209;-67
2023/05/05 12:51:36;;;;;;;1.88;1.10;;;22.00;99.90;;;;;;4947071;29;20263;-66
2023/05/05 12:54:10;;;;;;;2.38;1.20;;;22.10;99.90;;;;;;4961699;28;20201;-67
2023/05/05 12:56:40;;;;;;;2.53;1.10;;;22.10;99.90;;;;;;4973385;28;20177;-65
2023/05/05 12:59:10;;;;;;;1.50;0.93;;;22.20;99.90;;;;;;4946473;29;20181;-65
2023/05/05 13:01:46;;;;;;;2.05;1.17;;;22.20;99.90;;;;;;4942123;28;20188;-66